createdAt,value
2023-01-13T00:00:16.110Z,90.43
2023-01-13T00:02:42.765Z,91.28
2023-01-13T00:05:10.310Z,91.00
2023-01-13T00:07:38.390Z,90.71
2023-01-13T00:10:05.138Z,90.87
2023-01-13T00:12:31.687Z,90.99
2023-01-13T00:14:58.199Z,90.71
2023-01-13T00:17:24.732Z,90.52
2023-01-13T00:19:51.661Z,90.68
2023-01-13T00:22:18.218Z,90.45
2023-01-13T00:24:44.750Z,90.42
2023-01-13T00:27:11.278Z,90.38
2023-01-13T00:29:37.814Z,90.29
2023-01-13T00:32:04.406Z,90.19
2023-01-13T00:34:31.526Z,90.35
2023-01-13T00:36:58.182Z,90.20
2023-01-13T00:39:24.726Z,89.90
2023-01-13T00:42:09.725Z,90.05
2023-01-13T00:44:36.378Z,90.01
2023-01-13T00:47:02.872Z,89.92
2023-01-13T00:49:29.392Z,90.01
2023-01-13T00:51:55.882Z,90.32
2023-01-13T00:54:22.381Z,89.96
2023-01-13T00:56:48.881Z,90.05
2023-01-13T00:59:15.428Z,89.97
2023-01-13T01:01:42.168Z,89.57
2023-01-13T01:04:08.891Z,89.77
2023-01-13T01:06:35.478Z,89.73
2023-01-13T01:09:02.022Z,89.18
2023-01-13T01:11:29.408Z,89.64
2023-01-13T01:13:56.753Z,89.75
2023-01-13T01:16:24.214Z,89.11
2023-01-13T01:18:51.351Z,89.09
2023-01-13T01:21:18.247Z,89.62
2023-01-13T01:23:44.764Z,89.06
2023-01-13T01:26:15.543Z,88.77
2023-01-13T01:28:42.102Z,89.38
2023-01-13T01:31:09.382Z,89.11
2023-01-13T01:33:35.928Z,88.53
2023-01-13T01:36:02.679Z,88.74
2023-01-13T01:38:29.296Z,88.28
2023-01-13T01:40:56.005Z,88.95
2023-01-13T01:43:41.397Z,88.41
2023-01-13T01:46:07.923Z,88.19
2023-01-13T01:48:38.653Z,88.52
2023-01-13T01:51:05.423Z,88.17
2023-01-13T01:53:32.003Z,88.58
2023-01-13T01:55:58.621Z,88.50
2023-01-13T01:58:27.628Z,88.39
2023-01-13T02:00:54.277Z,88.37
2023-01-13T02:03:20.896Z,88.53
2023-01-13T02:05:47.416Z,88.22
2023-01-13T02:08:13.987Z,87.60
2023-01-13T02:10:40.812Z,88.64
2023-01-13T02:13:08.772Z,88.70
2023-01-13T02:15:40.898Z,88.09
2023-01-13T02:18:11.741Z,88.28
2023-01-13T02:20:57.376Z,87.85
2023-01-13T02:23:57.828Z,88.02
2023-01-13T02:26:30.132Z,87.57
2023-01-13T02:29:20.164Z,86.93
2023-01-13T02:31:46.815Z,87.09
2023-01-13T02:34:32.210Z,87.44
2023-01-13T02:37:00.136Z,86.35
2023-01-13T02:39:27.635Z,87.72
2023-01-13T02:42:14.071Z,87.54
2023-01-13T02:44:48.277Z,86.15
2023-01-13T02:47:20.074Z,87.12
2023-01-13T02:49:51.097Z,86.42
2023-01-13T02:52:19.770Z,86.79
2023-01-13T02:54:47.897Z,87.22
2023-01-13T02:57:14.406Z,86.32
2023-01-13T02:59:40.871Z,86.96
2023-01-13T03:02:07.469Z,86.21
2023-01-13T03:04:47.826Z,85.07
2023-01-13T03:07:23.813Z,85.02
2023-01-13T03:09:53.378Z,85.77
2023-01-13T03:12:38.127Z,86.65
2023-01-13T03:15:08.100Z,86.12
2023-01-13T03:17:41.986Z,83.43
2023-01-13T03:20:11.033Z,83.25
2023-01-13T03:22:45.271Z,85.92
2023-01-13T03:25:12.319Z,85.15
2023-01-13T03:27:41.795Z,86.48
2023-01-13T03:30:09.532Z,86.71
2023-01-13T03:32:36.926Z,86.43
2023-01-13T03:35:12.032Z,86.40
2023-01-13T03:37:39.621Z,83.98
2023-01-13T03:40:07.911Z,86.72
2023-01-13T03:42:34.588Z,86.18
2023-01-13T03:45:03.723Z,86.28
2023-01-13T03:47:38.546Z,86.26
2023-01-13T03:50:17.493Z,86.13
2023-01-13T03:52:44.942Z,86.90
2023-01-13T03:55:12.408Z,86.28
2023-01-13T03:57:40.309Z,84.69
2023-01-13T04:00:07.494Z,85.48
2023-01-13T04:02:51.817Z,86.62
2023-01-13T04:05:18.401Z,86.17
2023-01-13T04:07:49.860Z,86.49
2023-01-13T04:10:18.160Z,84.30
2023-01-13T04:13:00.923Z,85.38
2023-01-13T04:15:31.595Z,86.02
2023-01-13T04:18:14.839Z,86.73
2023-01-13T04:20:41.561Z,85.33
2023-01-13T04:23:08.190Z,85.42
2023-01-13T04:25:34.698Z,85.06
2023-01-13T04:28:01.135Z,84.17
2023-01-13T04:30:27.530Z,85.92
2023-01-13T04:32:54.028Z,86.12
2023-01-13T04:35:20.465Z,86.14
2023-01-13T04:37:46.870Z,86.13
2023-01-13T04:40:13.412Z,85.73
2023-01-13T04:42:39.944Z,84.16
2023-01-13T04:45:06.599Z,85.29
2023-01-13T04:47:33.008Z,85.35
2023-01-13T04:49:59.420Z,85.69
2023-01-13T04:52:25.915Z,86.25
2023-01-13T04:54:52.331Z,86.33
2023-01-13T04:57:18.795Z,85.31
2023-01-13T04:59:45.253Z,85.34
2023-01-13T05:02:15.108Z,86.07
2023-01-13T05:04:41.638Z,86.34
2023-01-13T05:07:08.215Z,84.67
2023-01-13T05:09:34.657Z,85.18
2023-01-13T05:12:19.934Z,85.94
2023-01-13T05:15:05.358Z,86.55
2023-01-13T05:17:31.918Z,86.60
2023-01-13T05:19:58.369Z,85.88
2023-01-13T05:22:43.543Z,86.12
2023-01-13T05:25:22.526Z,85.91
2023-01-13T05:27:49.251Z,86.46
2023-01-13T05:30:15.894Z,86.08
2023-01-13T05:32:42.422Z,85.54
2023-01-13T05:35:09.050Z,85.62
2023-01-13T05:37:35.922Z,83.52
2023-01-13T05:40:21.649Z,84.27
2023-01-13T05:43:06.788Z,85.47
2023-01-13T05:45:33.311Z,86.04
2023-01-13T05:47:59.788Z,85.61
2023-01-13T05:50:26.247Z,83.41
2023-01-13T05:52:52.717Z,85.67
2023-01-13T05:55:19.261Z,86.17
2023-01-13T05:57:45.715Z,85.93
2023-01-13T06:00:12.335Z,85.18
2023-01-13T06:02:38.818Z,85.83
2023-01-13T06:05:05.232Z,84.88
2023-01-13T06:07:31.681Z,84.37
2023-01-13T06:09:58.147Z,85.66
2023-01-13T06:12:24.590Z,85.31
2023-01-13T06:14:51.158Z,85.39
2023-01-13T06:17:17.660Z,86.29
2023-01-13T06:19:44.066Z,84.41
2023-01-13T06:22:22.993Z,84.97
2023-01-13T06:24:49.629Z,85.42
2023-01-13T06:27:16.090Z,84.40
2023-01-13T06:29:42.497Z,84.11
2023-01-13T06:32:11.613Z,85.00
2023-01-13T06:34:38.030Z,84.58
2023-01-13T06:37:04.417Z,84.66
2023-01-13T06:39:31.199Z,84.49
2023-01-13T06:42:33.138Z,84.59
2023-01-13T06:44:59.580Z,85.76
2023-01-13T06:47:26.163Z,85.62
2023-01-13T06:49:53.321Z,85.19
2023-01-13T06:52:19.861Z,85.77
2023-01-13T06:54:46.238Z,86.10
2023-01-13T06:57:12.652Z,85.58
2023-01-13T06:59:39.235Z,84.50
2023-01-13T07:02:05.768Z,85.89
2023-01-13T07:04:32.169Z,86.14
2023-01-13T07:06:58.664Z,84.40
2023-01-13T07:09:25.129Z,85.29
2023-01-13T07:14:35.333Z,85.40
2023-01-13T07:17:01.866Z,84.74
2023-01-13T07:19:28.419Z,84.96
2023-01-13T07:21:54.963Z,83.95
2023-01-13T07:24:22.465Z,84.27
2023-01-13T07:26:50.833Z,83.53
2023-01-13T07:29:17.345Z,83.32
2023-01-13T07:31:44.058Z,83.75
2023-01-13T07:34:10.600Z,83.58
2023-01-13T07:36:37.191Z,83.62
2023-01-13T07:39:03.836Z,83.12
2023-01-13T07:41:49.067Z,83.22
2023-01-13T07:44:15.592Z,83.21
2023-01-13T07:46:42.136Z,83.11
2023-01-13T07:49:09.097Z,82.42
2023-01-13T07:51:37.440Z,81.96
2023-01-13T07:54:04.087Z,82.69
2023-01-13T07:56:30.619Z,82.54
2023-01-13T07:58:59.362Z,81.83
2023-01-13T08:01:27.844Z,81.59
2023-01-13T08:03:56.225Z,81.03
2023-01-13T08:06:22.802Z,81.06
2023-01-13T08:08:49.335Z,81.00
2023-01-13T08:11:15.953Z,80.30
2023-01-13T08:13:42.593Z,80.76
2023-01-13T08:16:12.269Z,79.98
2023-01-13T08:18:39.037Z,79.93
2023-01-13T08:21:11.540Z,80.08
2023-01-13T08:23:38.577Z,80.10
2023-01-13T08:26:07.561Z,79.68
2023-01-13T08:28:34.177Z,80.37
2023-01-13T08:31:05.185Z,80.08
2023-01-13T08:33:31.795Z,78.99
2023-01-13T08:35:58.609Z,80.67
2023-01-13T08:38:25.357Z,80.37
2023-01-13T08:40:51.993Z,80.21
2023-01-13T08:43:18.547Z,79.93
2023-01-13T08:45:45.170Z,80.05
2023-01-13T08:48:11.801Z,79.87
2023-01-13T08:50:38.443Z,79.78
2023-01-13T08:53:04.990Z,80.22
2023-01-13T08:55:31.555Z,79.79
2023-01-13T08:58:14.217Z,79.82
2023-01-13T09:00:42.184Z,79.48
2023-01-13T09:03:08.739Z,80.02
2023-01-13T09:05:35.773Z,79.00
2023-01-13T09:08:02.339Z,78.89
2023-01-13T09:10:28.930Z,79.16
2023-01-13T09:13:13.865Z,79.67
2023-01-13T09:15:45.434Z,78.88
2023-01-13T09:18:12.876Z,78.62
2023-01-13T09:20:39.907Z,79.19
2023-01-13T09:23:10.061Z,79.31
2023-01-13T09:25:37.335Z,79.06
2023-01-13T09:28:05.097Z,78.84
2023-01-13T09:30:31.943Z,78.50
2023-01-13T09:33:17.441Z,78.89
2023-01-13T09:35:44.449Z,79.34
2023-01-13T09:38:11.028Z,78.23
2023-01-13T09:40:38.636Z,77.56
2023-01-13T09:43:37.092Z,76.36
2023-01-13T09:46:31.465Z,78.37
2023-01-13T09:48:58.399Z,78.16
2023-01-13T09:51:32.279Z,77.06
2023-01-13T09:54:07.221Z,77.48
2023-01-13T09:56:33.769Z,76.95
2023-01-13T09:59:00.300Z,76.08
2023-01-13T10:01:30.297Z,75.64
2023-01-13T10:03:57.945Z,75.58
2023-01-13T10:06:35.092Z,75.30
2023-01-13T10:09:01.853Z,74.97
2023-01-13T10:11:55.669Z,75.42
2023-01-13T10:14:36.055Z,75.34
2023-01-13T10:17:15.536Z,75.46
2023-01-13T10:19:50.829Z,73.57
2023-01-13T10:22:35.109Z,74.69
2023-01-13T10:25:20.361Z,73.35
2023-01-13T10:27:53.235Z,74.25
2023-01-13T10:30:31.167Z,74.55
2023-01-13T10:33:25.785Z,73.97
2023-01-13T10:35:55.979Z,74.61
2023-01-13T10:38:32.852Z,74.62
2023-01-13T10:41:02.346Z,74.52
2023-01-13T10:43:29.998Z,75.04
2023-01-13T10:46:02.429Z,75.17
2023-01-13T10:48:58.334Z,74.69
2023-01-13T10:51:32.765Z,74.91
2023-01-13T10:54:02.818Z,75.08
2023-01-13T10:56:32.673Z,74.74
2023-01-13T10:59:22.293Z,74.84
2023-01-13T11:02:02.413Z,74.61
2023-01-13T11:04:42.607Z,72.78
2023-01-13T11:07:21.398Z,75.29
2023-01-13T11:09:48.127Z,74.51
2023-01-13T11:12:33.097Z,73.59
2023-01-13T11:15:02.496Z,72.41
2023-01-13T11:17:42.814Z,70.99
2023-01-13T11:20:14.775Z,73.01
2023-01-13T11:22:46.333Z,72.52
2023-01-13T11:25:22.425Z,70.81
2023-01-13T11:27:57.643Z,69.73
2023-01-13T11:30:44.004Z,70.75
2023-01-13T11:33:10.523Z,70.51
2023-01-13T11:35:47.617Z,69.76
2023-01-13T11:38:28.620Z,65.81
2023-01-13T11:40:58.821Z,68.52
2023-01-13T11:43:51.659Z,67.96
2023-01-13T11:46:18.907Z,67.94
2023-01-13T11:48:45.509Z,67.24
2023-01-13T11:51:15.169Z,66.02
2023-01-13T11:54:12.073Z,63.39
2023-01-13T11:57:06.521Z,65.92
2023-01-13T11:59:50.382Z,65.79
2023-01-13T12:02:24.733Z,62.97
2023-01-13T12:05:06.808Z,64.76
2023-01-13T12:07:56.003Z,62.03
2023-01-13T12:10:31.329Z,64.51
2023-01-13T12:13:15.346Z,61.73
2023-01-13T12:15:47.457Z,64.25
2023-01-13T12:18:16.931Z,64.16
2023-01-13T12:21:03.881Z,60.30
2023-01-13T12:23:34.549Z,64.15
2023-01-13T12:26:21.342Z,61.90
2023-01-13T12:28:58.309Z,63.23
2023-01-13T12:31:25.260Z,64.41
2023-01-13T12:33:55.570Z,62.83
2023-01-13T12:36:27.788Z,61.75
2023-01-13T12:38:59.475Z,60.58
2023-01-13T12:42:16.986Z,62.49
2023-01-13T12:45:08.304Z,56.33
2023-01-13T12:47:44.426Z,64.03
2023-01-13T12:50:40.737Z,58.55
2023-01-13T12:53:30.662Z,57.56
2023-01-13T12:56:20.820Z,61.57
2023-01-13T12:58:47.382Z,61.44
2023-01-13T13:01:15.388Z,58.01
2023-01-13T13:03:42.072Z,58.23
2023-01-13T13:06:23.165Z,59.54
2023-01-13T13:09:03.242Z,60.70
2023-01-13T13:12:03.590Z,55.39
2023-01-13T13:14:38.983Z,57.23
2023-01-13T13:17:27.973Z,55.60
2023-01-13T13:19:56.003Z,57.70
2023-01-13T13:22:38.663Z,52.74
2023-01-13T13:25:05.074Z,56.95
2023-01-13T13:27:31.526Z,56.95
2023-01-13T13:30:17.501Z,56.80
2023-01-13T13:32:55.935Z,57.10
2023-01-13T13:35:32.181Z,56.13
2023-01-13T13:38:43.635Z,57.29
2023-01-13T13:41:41.883Z,59.31
2023-01-13T13:44:38.572Z,60.36
2023-01-13T13:47:06.501Z,60.01
2023-01-13T13:49:49.064Z,59.77
2023-01-13T13:52:21.433Z,60.21
2023-01-13T13:54:51.946Z,60.50
2023-01-13T13:57:40.016Z,59.28
2023-01-13T14:00:15.926Z,60.50
2023-01-13T14:02:49.616Z,60.05
2023-01-13T14:05:34.093Z,59.72
2023-01-13T14:08:18.710Z,59.97
2023-01-13T14:10:46.324Z,60.08
2023-01-13T14:13:27.045Z,60.32
2023-01-13T14:16:06.732Z,59.83
2023-01-13T14:18:48.167Z,59.27
2023-01-13T14:21:19.418Z,59.61
2023-01-13T14:23:57.034Z,59.02
2023-01-13T14:26:31.096Z,60.87
2023-01-13T14:28:58.760Z,60.40
2023-01-13T14:31:25.611Z,60.29
2023-01-13T14:33:54.284Z,60.39
2023-01-13T14:36:33.129Z,60.45
2023-01-13T14:39:05.707Z,60.02
2023-01-13T14:41:35.029Z,59.92
2023-01-13T14:44:09.855Z,59.19
2023-01-13T14:46:38.514Z,59.69
2023-01-13T14:49:05.322Z,59.11
2023-01-13T14:51:32.025Z,59.50
2023-01-13T14:53:59.265Z,59.75
2023-01-13T14:56:53.729Z,58.83
2023-01-13T14:59:57.304Z,58.84
2023-01-13T15:02:37.183Z,59.13
2023-01-13T15:05:19.032Z,57.26
2023-01-13T15:07:52.978Z,59.54
2023-01-13T15:10:21.424Z,59.93
2023-01-13T15:12:51.690Z,58.98
2023-01-13T15:15:33.055Z,59.38
2023-01-13T15:18:01.827Z,59.52
2023-01-13T15:20:28.974Z,60.08
2023-01-13T15:22:57.965Z,59.92
2023-01-13T15:25:24.589Z,60.23
2023-01-13T15:27:52.587Z,60.46
2023-01-13T15:30:20.679Z,60.35
2023-01-13T15:32:47.705Z,59.83
2023-01-13T15:35:16.166Z,60.23
2023-01-13T15:37:43.952Z,60.56
2023-01-13T15:40:23.756Z,60.05
2023-01-13T15:43:09.386Z,60.26
2023-01-13T15:45:55.471Z,60.24
2023-01-13T15:48:23.445Z,60.07
2023-01-13T15:50:50.261Z,59.99
2023-01-13T15:53:17.060Z,60.08
2023-01-13T15:55:45.687Z,59.96
2023-01-13T15:58:12.921Z,60.03
2023-01-13T16:00:40.108Z,59.98
2023-01-13T16:03:06.859Z,59.97
2023-01-13T16:05:33.425Z,59.65
2023-01-13T16:08:00.023Z,60.06
2023-01-13T16:10:27.987Z,59.90
2023-01-13T16:12:57.398Z,60.42
2023-01-13T16:15:25.887Z,60.47
2023-01-13T16:17:57.103Z,60.00
2023-01-13T16:20:23.712Z,61.09
2023-01-13T16:22:50.568Z,60.15
2023-01-13T16:25:25.026Z,59.92
2023-01-13T16:27:52.720Z,60.62
2023-01-13T16:30:28.422Z,59.81
2023-01-13T16:32:55.250Z,61.16
2023-01-13T16:35:22.470Z,61.30
2023-01-13T16:37:49.332Z,60.69
2023-01-13T16:40:34.051Z,59.69
2023-01-13T16:43:03.201Z,61.62
2023-01-13T16:45:33.577Z,61.89
2023-01-13T16:48:00.337Z,62.00
2023-01-13T16:50:45.151Z,60.75
2023-01-13T16:53:11.985Z,62.88
2023-01-13T16:55:40.060Z,63.12
2023-01-13T16:58:07.292Z,62.89
2023-01-13T17:00:34.121Z,64.04
2023-01-13T17:03:02.949Z,63.19
2023-01-13T17:05:29.615Z,63.81
2023-01-13T17:07:57.359Z,63.51
2023-01-13T17:10:25.094Z,63.75
2023-01-13T17:12:51.775Z,64.24
2023-01-13T17:15:19.593Z,65.10
2023-01-13T17:17:52.072Z,65.04
2023-01-13T17:20:19.204Z,65.24
2023-01-13T17:22:49.754Z,65.34
2023-01-13T17:25:21.592Z,65.18
2023-01-13T17:27:48.216Z,66.05
2023-01-13T17:30:15.159Z,65.76
2023-01-13T17:32:41.760Z,65.51
2023-01-13T17:35:08.921Z,66.25
2023-01-13T17:37:35.673Z,66.15
2023-01-13T17:40:02.271Z,66.07
2023-01-13T17:42:29.651Z,66.81
2023-01-13T17:44:56.400Z,66.59
2023-01-13T17:47:23.119Z,66.52
2023-01-13T17:49:49.681Z,67.13
2023-01-13T17:52:16.306Z,67.00
2023-01-13T17:54:43.830Z,67.34
2023-01-13T17:57:10.741Z,67.84
2023-01-13T17:59:37.305Z,67.54
2023-01-13T18:02:04.891Z,67.39
2023-01-13T18:04:31.701Z,66.97
2023-01-13T18:06:58.385Z,67.15
2023-01-13T18:09:25.956Z,67.57
2023-01-13T18:11:52.525Z,67.07
2023-01-13T18:14:22.373Z,67.07
2023-01-13T18:16:49.032Z,66.79
2023-01-13T18:19:34.194Z,67.25
2023-01-13T18:22:19.513Z,67.43
2023-01-13T18:25:04.703Z,67.51
2023-01-13T18:27:33.477Z,66.30
2023-01-13T18:30:01.102Z,66.46
2023-01-13T18:32:32.871Z,66.16
2023-01-13T18:35:06.489Z,66.31
2023-01-13T18:37:35.980Z,66.78
2023-01-13T18:40:03.493Z,66.25
2023-01-13T18:42:48.871Z,66.69
2023-01-13T18:45:15.465Z,66.76
2023-01-13T18:47:42.362Z,66.29
2023-01-13T18:50:09.871Z,66.13
2023-01-13T18:52:36.626Z,66.50
2023-01-13T18:55:03.706Z,65.90
2023-01-13T18:57:30.311Z,65.47
2023-01-13T18:59:57.650Z,65.61
2023-01-13T19:02:26.372Z,65.53
2023-01-13T19:04:53.853Z,65.93
2023-01-13T19:07:26.787Z,65.39
2023-01-13T19:09:55.545Z,65.16
2023-01-13T19:12:26.455Z,65.12
2023-01-13T19:14:59.257Z,64.49
2023-01-13T19:17:36.265Z,63.07
2023-01-13T19:20:05.072Z,64.94
2023-01-13T19:22:33.678Z,65.64
2023-01-13T19:25:01.568Z,64.88
2023-01-13T19:27:29.203Z,65.17
2023-01-13T19:30:02.361Z,65.32
2023-01-13T19:32:35.506Z,64.97
2023-01-13T19:35:02.107Z,65.01
2023-01-13T19:37:30.433Z,65.16
2023-01-13T19:39:58.624Z,65.13
2023-01-13T19:42:43.964Z,65.45
2023-01-13T19:45:27.346Z,65.00
2023-01-13T19:47:55.348Z,65.23
2023-01-13T19:50:21.907Z,65.00
2023-01-13T19:52:49.432Z,65.55
2023-01-13T19:55:16.498Z,65.34
2023-01-13T19:57:43.471Z,65.44
2023-01-13T20:00:11.264Z,65.04
2023-01-13T20:02:47.586Z,64.42
2023-01-13T20:05:18.124Z,64.57
2023-01-13T20:07:44.817Z,65.29
2023-01-13T20:10:13.175Z,64.79
2023-01-13T20:12:39.902Z,64.67
2023-01-13T20:15:07.057Z,65.61
2023-01-13T20:17:33.642Z,65.44
2023-01-13T20:20:00.358Z,65.37
2023-01-13T20:22:26.921Z,64.83
2023-01-13T20:24:55.270Z,65.33
2023-01-13T20:27:23.736Z,65.46
2023-01-13T20:29:50.628Z,65.17
2023-01-13T20:32:17.169Z,64.94
2023-01-13T20:34:43.820Z,64.95
2023-01-13T20:37:10.439Z,65.10
2023-01-13T20:39:36.996Z,65.56
2023-01-13T20:42:22.659Z,65.69
2023-01-13T20:44:49.642Z,65.78
2023-01-13T20:47:16.160Z,65.29
2023-01-13T20:49:42.700Z,65.60
2023-01-13T20:52:09.709Z,65.30
2023-01-13T20:54:37.099Z,65.35
2023-01-13T20:57:05.075Z,65.40
2023-01-13T20:59:31.755Z,65.70
2023-01-13T21:01:58.391Z,65.48
2023-01-13T21:04:25.078Z,65.61
2023-01-13T21:06:52.260Z,65.03
2023-01-13T21:09:18.875Z,65.29
2023-01-13T21:12:04.065Z,65.11
2023-01-13T21:14:49.227Z,65.39
2023-01-13T21:17:34.331Z,66.37
2023-01-13T21:20:02.298Z,65.80
2023-01-13T21:22:30.250Z,66.07
2023-01-13T21:24:58.476Z,65.97
2023-01-13T21:27:25.824Z,65.42
2023-01-13T21:29:52.419Z,66.15
2023-01-13T21:32:19.074Z,66.09
2023-01-13T21:34:46.429Z,66.14
2023-01-13T21:37:14.788Z,66.24
2023-01-13T21:39:42.507Z,66.09
2023-01-13T21:42:34.651Z,66.04
2023-01-13T21:45:20.490Z,66.43
2023-01-13T21:47:49.656Z,66.22
2023-01-13T21:50:22.533Z,65.61
2023-01-13T21:52:50.285Z,65.86
2023-01-13T21:55:17.176Z,65.92
2023-01-13T21:57:47.815Z,66.08
2023-01-13T22:00:15.782Z,65.83
2023-01-13T22:02:42.948Z,65.69
2023-01-13T22:05:11.304Z,66.28
2023-01-13T22:07:38.939Z,66.78
2023-01-13T22:10:08.135Z,65.84
2023-01-13T22:12:34.680Z,66.12
2023-01-13T22:15:01.855Z,66.44
2023-01-13T22:17:28.694Z,66.76
2023-01-13T22:19:57.343Z,66.61
2023-01-13T22:22:25.096Z,66.43
2023-01-13T22:24:53.107Z,67.03
2023-01-13T22:27:21.966Z,66.76
2023-01-13T22:29:49.565Z,67.04
2023-01-13T22:32:16.723Z,66.56
2023-01-13T22:34:43.605Z,67.02
2023-01-13T22:37:10.254Z,67.20
2023-01-13T22:39:36.861Z,66.83
2023-01-13T22:42:04.095Z,66.83
2023-01-13T22:44:30.745Z,67.49
2023-01-13T22:46:57.283Z,67.34
2023-01-13T22:49:23.838Z,68.07
2023-01-13T22:51:50.404Z,67.60
2023-01-13T22:54:18.233Z,67.70
2023-01-13T22:56:44.871Z,67.36
2023-01-13T22:59:13.208Z,67.22
2023-01-13T23:01:40.287Z,67.75
2023-01-13T23:04:07.140Z,67.79
2023-01-13T23:06:35.323Z,68.32
2023-01-13T23:09:01.894Z,67.66
2023-01-13T23:11:29.461Z,67.57
2023-01-13T23:14:07.031Z,67.56
2023-01-13T23:16:36.808Z,68.36
2023-01-13T23:19:04.657Z,68.91
2023-01-13T23:21:33.325Z,69.00
2023-01-13T23:24:00.328Z,69.20
2023-01-13T23:26:27.628Z,69.71
2023-01-13T23:28:58.869Z,70.22
2023-01-13T23:31:25.815Z,69.97
2023-01-13T23:33:52.477Z,70.59
2023-01-13T23:36:21.326Z,70.59
2023-01-13T23:38:48.180Z,70.25
2023-01-13T23:41:16.711Z,70.40
2023-01-13T23:43:43.350Z,70.11
2023-01-13T23:46:12.447Z,70.15
2023-01-13T23:48:39.138Z,69.98
2023-01-13T23:51:08.678Z,70.44
2023-01-13T23:53:39.952Z,70.77
2023-01-13T23:56:10.507Z,70.01
2023-01-13T23:58:37.055Z,70.01
